Close

Weather

The weather information here should not replace a pre-flight briefing, and may not be accurate at any given time due to internet outages or other issues.

6NM NNE of NC26
STATESVILLE, NC
Metar
KSVH 200955Z AUTO 00000KT 10SM CLR 11/10 A3031 RMK AO2 T01050097

09:55 UTC

Wind: 0° 0kt

Visibility: 10 SM

Sky:

Temp: 11 deg C / 51.8 deg F

Dewpoint: 10 deg C / 50 deg F

Pressure: 30.31 inHg

21NM NW of NC26
HICKORY, NC
Metar
KHKY 200953Z AUTO 00000KT 1/4SM FG VV001 12/11 A3031 RMK AO2 SLP250 T01170106

09:53 UTC

Wind: 0° 0kt

Visibility: 0.25 SM

Sky: VV 100 ft

Temp: 12 deg C / 53.6 deg F

Dewpoint: 11 deg C / 51.8 deg F

Pressure: 30.31 inHg


Wind Graph at Long Island